Cedar Rapids, IA

1:25 PM CDT on July 30, 2015 (GMT -0500)
SW Cedar Rapids | | Change Station
CLOSE
Current Station
Personal Weather Station
Location: Cedar Rapids, IA
Elevation: 745 ft
Nearby Weather Stations

Elev 745 ft 41.97 °N, 91.68 °W | Updated 13 seconds ago

Clear
Clear
85.7 °F
Feels Like 88 °F
N
0.4
Wind Variable Wind from WNW
Gusts 2.5 mph

Today
High -- | Low -- °F
--% Chance of Precip.
Yesterday
High -- | Low -- °F
Precip. -- in
5:57 AM 8:27 PM
Waxing Gibbous, 99% visible
Pressure 30.11 in
Visibility 10.0 miles
Clouds Clear
Heat Index 88 °F
Dew Point 66 °F
Humidity 51%
Rainfall 0.00 in
Snow Depth Not available.
UV 11 out of 12
Pollen 6.20 out of 12
Air Quality Not available.
Flu Activity Not available.
METAR KCID 301752Z 24008KT 10SM CLR 28/19 A3012 RMK AO2 SLP194 T02780194 10278 20167 50000

More Conditions Fewer Conditions

Pressure 30.11 in
Visibility 10.0 miles
Clouds Clear
Heat Index 88 °F
Dew Point 66 °F
Humidity 51%
Rainfall 0.00 in
Snow Depth Not available.
UV 11 out of 12
Pollen 6.20 out of 12
Air Quality Not available.
Flu Activity Not available.
METAR KCID 301752Z 24008KT 10SM CLR 28/19 A3012 RMK AO2 SLP194 T02780194 10278 20167 50000

More Conditions Fewer Conditions

10-Day Weather Forecast

×

Almanac

Astronomy

Jul. 30, 2015 Rise Set
Actual Time
Civil Twilight
Nautical Twilight
Astronomical Twilight
Moon
Length of Visible Light
Length of Day
Tomorrow will be .
, % of the Moon is Illuminated

Today's Extremes

State Highs State Lows

Community

WunderPhotos

Upload Photos

1,842,457 photos uploaded!

WunderBlogs® & News

Nearby

Air Quality

  Air Quality AQ Index Pollutant
Not available.

Snow Depth

Station Depth Elevation

Earthquake Activity

City Distance Mag. Time & Date
Minimum magnitude displayed is 2.5.

Coastal Water Temperatures

Place Temperature

Stations

Nearby Weather Stations

Station Location Temp. Windchill Dew Point Humidity Wind Precip. Elev Updated Type